Milborne Port, United Kingdom
Current Conditions -  °F | °C
As of 8:50 AM on Sunday 21 Dec 2014 (Local Time) from EGDY Reporting Station
Broken Clouds Broken Clouds  
Wind Chill:   Ceiling: 2800
Heat Index:   Visibility: 6mi
Dew Point:   Wind: 9mph
Humidity: 87%   Direction: 220°SW
Pressure: 30.39"   Gusts: NA
Location:  50.97°N, 2.46°W
Report Text: EGDY 210850Z AUTO 22008KT 9999 BKN028/// 08/06 Q1029 REDZ
Loading
Personal Weather Stations






























Interactive Weather Map New forecast layout! Learn more

10-Day Weather Forecast

Advertisements
Track Severe Weather on mobile